createdAt,value
2023-05-17T00:01:07.107Z,5.30
2023-05-17T00:03:33.814Z,5.40
2023-05-17T00:06:00.863Z,5.40
2023-05-17T00:08:27.589Z,5.30
2023-05-17T00:10:54.336Z,5.30
2023-05-17T00:13:21.385Z,5.30
2023-05-17T00:15:48.156Z,5.30
2023-05-17T00:18:15.352Z,5.20
2023-05-17T00:20:42.582Z,5.10
2023-05-17T00:23:09.370Z,5.00
2023-05-17T00:25:36.334Z,5.00
2023-05-17T00:28:03.459Z,4.90
2023-05-17T00:30:30.767Z,4.90
2023-05-17T00:32:57.654Z,4.90
2023-05-17T00:35:24.832Z,4.80
2023-05-17T00:37:51.621Z,4.80
2023-05-17T00:40:18.554Z,4.80
2023-05-17T00:42:45.650Z,4.70
2023-05-17T00:45:14.875Z,4.70
2023-05-17T00:47:42.900Z,4.70
2023-05-17T00:50:10.803Z,4.70
2023-05-17T00:52:38.206Z,4.70
2023-05-17T00:55:05.455Z,4.60
2023-05-17T00:57:32.509Z,4.60
2023-05-17T01:00:00.459Z,4.50
2023-05-17T01:02:27.425Z,4.60
2023-05-17T01:04:54.524Z,4.40
2023-05-17T01:07:21.348Z,4.50
2023-05-17T01:09:48.175Z,4.50
2023-05-17T01:12:29.233Z,4.50
2023-05-17T01:15:06.260Z,4.50
2023-05-17T01:17:36.407Z,4.50
2023-05-17T01:20:28.337Z,4.60
2023-05-17T01:23:13.282Z,4.60
2023-05-17T01:26:08.936Z,4.60
2023-05-17T01:28:38.602Z,4.50
2023-05-17T01:31:07.681Z,4.60
2023-05-17T01:33:34.954Z,4.60
2023-05-17T01:36:02.127Z,4.60
2023-05-17T01:38:29.107Z,4.60
2023-05-17T01:41:16.562Z,4.60
2023-05-17T01:43:51.631Z,4.60
2023-05-17T01:46:39.965Z,4.50
2023-05-17T01:49:15.545Z,4.60
2023-05-17T01:51:49.614Z,4.60
2023-05-17T01:54:23.104Z,4.60
2023-05-17T01:56:57.784Z,4.50
2023-05-17T01:59:25.500Z,4.50
2023-05-17T02:02:04.201Z,4.50
2023-05-17T02:04:31.281Z,4.50
2023-05-17T02:06:58.186Z,4.50
2023-05-17T02:09:24.956Z,4.50
2023-05-17T02:11:51.777Z,4.40
2023-05-17T02:14:18.930Z,4.40
2023-05-17T02:16:45.812Z,4.50
2023-05-17T02:19:13.242Z,4.40
2023-05-17T02:21:40.367Z,4.50
2023-05-17T02:24:07.273Z,4.50
2023-05-17T02:26:34.016Z,4.40
2023-05-17T02:29:01.346Z,4.40
2023-05-17T02:31:28.892Z,4.40
2023-05-17T02:33:55.967Z,4.40
2023-05-17T02:36:22.794Z,4.40
2023-05-17T02:38:49.599Z,4.30
2023-05-17T02:41:16.377Z,4.30
2023-05-17T02:43:44.850Z,4.20
2023-05-17T02:46:11.623Z,4.20
2023-05-17T02:48:38.357Z,4.20
2023-05-17T02:51:05.505Z,4.20
2023-05-17T02:53:32.226Z,4.20
2023-05-17T02:55:59.050Z,4.20
2023-05-17T02:58:26.404Z,4.20
2023-05-17T03:00:53.175Z,4.10
2023-05-17T03:03:19.974Z,4.10
2023-05-17T03:05:47.261Z,4.00
2023-05-17T03:08:14.064Z,4.00
2023-05-17T03:10:41.154Z,3.80
2023-05-17T03:13:07.910Z,3.80
2023-05-17T03:15:35.126Z,3.70
2023-05-17T03:18:01.908Z,3.70
2023-05-17T03:20:29.006Z,3.60
2023-05-17T03:22:55.982Z,3.60
2023-05-17T03:25:22.659Z,3.60
2023-05-17T03:27:49.512Z,3.60
2023-05-17T03:30:16.562Z,3.60
2023-05-17T03:32:43.384Z,3.60
2023-05-17T03:35:10.592Z,3.50
2023-05-17T03:37:37.580Z,3.50
2023-05-17T03:40:05.421Z,3.50
2023-05-17T03:42:32.200Z,3.50
2023-05-17T03:45:01.363Z,3.50
2023-05-17T03:47:28.466Z,3.60
2023-05-17T03:49:55.239Z,3.50
2023-05-17T03:52:22.244Z,3.60
2023-05-17T03:54:49.049Z,3.60
2023-05-17T03:57:16.136Z,3.60
2023-05-17T03:59:43.158Z,3.70
2023-05-17T04:02:09.962Z,3.70
2023-05-17T04:04:37.042Z,3.70
2023-05-17T04:07:05.853Z,3.80
2023-05-17T04:09:35.241Z,3.90
2023-05-17T04:12:02.304Z,4.00
2023-05-17T04:14:29.075Z,4.10
2023-05-17T04:16:56.082Z,4.20
2023-05-17T04:19:23.040Z,4.20
2023-05-17T04:21:52.101Z,4.40
2023-05-17T04:24:19.089Z,4.40
2023-05-17T04:26:46.081Z,4.40
2023-05-17T04:29:13.113Z,4.40
2023-05-17T04:31:39.908Z,4.50
2023-05-17T04:34:06.753Z,4.60
2023-05-17T04:36:34.089Z,4.60
2023-05-17T04:39:01.157Z,4.60
2023-05-17T04:41:28.017Z,4.60
2023-05-17T04:43:55.047Z,4.70
2023-05-17T04:46:22.064Z,4.70
2023-05-17T04:48:49.504Z,4.80
2023-05-17T04:51:16.376Z,5.10
2023-05-17T04:53:43.134Z,5.20
2023-05-17T04:56:10.042Z,5.30
2023-05-17T04:58:37.048Z,5.50
2023-05-17T05:01:04.647Z,5.70
2023-05-17T05:03:31.856Z,5.80
2023-05-17T05:05:58.648Z,5.90
2023-05-17T05:08:25.663Z,6.00
2023-05-17T05:10:52.450Z,6.20
2023-05-17T05:13:19.260Z,6.30
2023-05-17T05:15:46.306Z,6.40
2023-05-17T05:18:13.515Z,6.60
2023-05-17T05:20:40.341Z,6.80
2023-05-17T05:23:07.451Z,6.80
2023-05-17T05:25:34.723Z,6.90
2023-05-17T05:28:01.560Z,6.90
2023-05-17T05:30:28.525Z,7.00
2023-05-17T05:32:55.383Z,7.20
2023-05-17T05:35:29.783Z,7.30
2023-05-17T05:37:57.736Z,7.40
2023-05-17T05:40:24.540Z,7.40
2023-05-17T05:42:52.739Z,7.40
2023-05-17T05:45:19.852Z,7.50
2023-05-17T05:47:46.970Z,7.70
2023-05-17T05:50:13.768Z,7.80
2023-05-17T05:52:40.648Z,7.90
2023-05-17T05:55:07.774Z,8.00
2023-05-17T05:57:34.951Z,8.20
2023-05-17T06:00:01.727Z,8.50
2023-05-17T06:02:28.498Z,8.60
2023-05-17T06:04:55.786Z,8.60
2023-05-17T06:07:22.961Z,8.70
2023-05-17T06:09:49.787Z,8.80
2023-05-17T06:12:17.827Z,8.70
2023-05-17T06:14:44.827Z,8.80
2023-05-17T06:17:11.824Z,9.10
2023-05-17T06:19:39.013Z,9.30
2023-05-17T06:22:05.926Z,9.40
2023-05-17T06:24:33.234Z,9.60
2023-05-17T06:27:00.380Z,9.60
2023-05-17T06:29:27.332Z,9.60
2023-05-17T06:31:56.483Z,9.60
2023-05-17T06:34:23.289Z,9.40
2023-05-17T06:36:50.037Z,9.30
2023-05-17T06:39:17.258Z,9.60
2023-05-17T06:41:44.582Z,9.70
2023-05-17T06:44:11.833Z,9.90
2023-05-17T06:46:38.591Z,10.10
2023-05-17T06:49:05.835Z,10.40
2023-05-17T06:51:32.608Z,10.80
2023-05-17T06:53:59.341Z,11.30
2023-05-17T06:56:26.885Z,11.60
2023-05-17T06:58:53.891Z,12.20
2023-05-17T07:01:20.652Z,12.50
2023-05-17T07:03:47.621Z,12.50
2023-05-17T07:06:14.405Z,11.90
2023-05-17T07:08:41.658Z,11.50
2023-05-17T07:11:08.367Z,11.20
2023-05-17T07:13:35.129Z,11.20
2023-05-17T07:16:02.173Z,11.90
2023-05-17T07:18:29.023Z,12.70
2023-05-17T07:20:55.831Z,13.50
2023-05-17T07:23:22.870Z,14.00
2023-05-17T07:25:49.833Z,14.20
2023-05-17T07:28:16.668Z,14.20
2023-05-17T07:30:43.828Z,13.90
2023-05-17T07:33:10.604Z,14.00
2023-05-17T07:35:37.766Z,14.10
2023-05-17T07:38:04.511Z,14.70
2023-05-17T07:40:31.251Z,15.40
2023-05-17T07:42:57.991Z,16.10
2023-05-17T07:45:25.737Z,16.40
2023-05-17T07:47:52.815Z,15.90
2023-05-17T07:50:19.639Z,15.60
2023-05-17T07:52:46.362Z,15.10
2023-05-17T07:55:14.200Z,14.50
2023-05-17T07:57:43.951Z,13.90
2023-05-17T08:00:12.882Z,13.60
2023-05-17T08:02:40.598Z,13.40
2023-05-17T08:05:08.861Z,13.20
2023-05-17T08:07:35.906Z,13.00
2023-05-17T08:10:02.893Z,12.80
2023-05-17T08:12:29.939Z,12.40
2023-05-17T08:14:56.646Z,12.10
2023-05-17T08:17:23.454Z,11.90
2023-05-17T08:19:50.312Z,11.70
2023-05-17T08:22:17.542Z,11.70
2023-05-17T08:24:45.316Z,11.70
2023-05-17T08:27:12.186Z,11.60
2023-05-17T08:29:39.924Z,11.60
2023-05-17T08:32:09.981Z,11.60
2023-05-17T08:34:37.047Z,11.60
2023-05-17T08:37:03.974Z,11.60
2023-05-17T08:39:31.564Z,11.90
2023-05-17T08:41:59.739Z,12.50
2023-05-17T08:44:28.594Z,13.00
2023-05-17T08:46:59.588Z,13.40
2023-05-17T08:49:29.043Z,12.90
2023-05-17T08:51:59.774Z,12.70
2023-05-17T08:54:26.819Z,12.60
2023-05-17T08:57:00.601Z,12.20
2023-05-17T08:59:33.654Z,12.00
2023-05-17T09:02:01.509Z,11.80
2023-05-17T09:04:31.038Z,11.80
2023-05-17T09:06:58.096Z,11.70
2023-05-17T09:09:27.712Z,11.80
2023-05-17T09:11:57.526Z,11.80
2023-05-17T09:14:24.493Z,11.60
2023-05-17T09:17:00.139Z,11.60
2023-05-17T09:19:27.287Z,11.50
2023-05-17T09:21:55.190Z,11.50
2023-05-17T09:24:30.422Z,11.50
2023-05-17T09:27:04.284Z,11.40
2023-05-17T09:29:35.188Z,11.20
2023-05-17T09:32:15.026Z,11.10
2023-05-17T09:34:42.863Z,10.90
2023-05-17T09:37:15.331Z,10.70
2023-05-17T09:39:43.409Z,10.50
2023-05-17T09:42:10.587Z,10.50
2023-05-17T09:44:48.087Z,10.60
2023-05-17T09:47:29.181Z,10.70
2023-05-17T09:49:58.379Z,10.80
2023-05-17T09:52:25.375Z,11.00
2023-05-17T09:54:58.332Z,11.10
2023-05-17T09:57:26.888Z,11.40
2023-05-17T09:59:58.057Z,11.70
2023-05-17T10:02:31.083Z,11.50
2023-05-17T10:04:58.661Z,11.50
2023-05-17T10:07:26.870Z,11.60
2023-05-17T10:09:55.950Z,11.80
2023-05-17T10:12:24.372Z,11.80
2023-05-17T10:14:56.215Z,11.80
2023-05-17T10:17:24.486Z,11.70
2023-05-17T10:19:51.879Z,11.60
2023-05-17T10:22:23.697Z,11.60
2023-05-17T10:24:51.804Z,11.60
2023-05-17T10:27:18.985Z,11.60
2023-05-17T10:30:05.547Z,11.50
2023-05-17T10:32:32.602Z,11.60
2023-05-17T10:35:10.684Z,11.90
2023-05-17T10:37:57.493Z,12.30
2023-05-17T10:40:24.958Z,12.50
2023-05-17T10:42:53.821Z,12.60
2023-05-17T10:45:22.400Z,12.70
2023-05-17T10:47:52.860Z,12.60
2023-05-17T10:50:24.463Z,12.50
2023-05-17T10:52:52.614Z,12.40
2023-05-17T10:55:38.078Z,12.20
2023-05-17T10:58:11.166Z,12.00
2023-05-17T11:00:42.435Z,11.80
2023-05-17T11:03:26.321Z,11.80
2023-05-17T11:06:24.361Z,11.80
2023-05-17T11:09:13.863Z,12.10
2023-05-17T11:12:04.614Z,12.00
2023-05-17T11:14:53.524Z,12.30
2023-05-17T11:17:27.035Z,12.70
2023-05-17T11:20:02.647Z,13.30
2023-05-17T11:22:41.525Z,13.70
2023-05-17T11:25:28.293Z,14.10
2023-05-17T11:27:55.210Z,14.20
2023-05-17T11:30:24.589Z,14.10
2023-05-17T11:33:16.621Z,13.90
2023-05-17T11:35:54.629Z,14.00
2023-05-17T11:38:24.374Z,13.80
2023-05-17T11:40:54.423Z,13.70
2023-05-17T11:43:26.104Z,13.60
2023-05-17T11:45:57.673Z,13.50
2023-05-17T11:48:26.853Z,13.30
2023-05-17T11:50:58.832Z,13.40
2023-05-17T11:53:27.998Z,13.10
2023-05-17T11:55:56.041Z,13.10
2023-05-17T11:58:26.849Z,13.10
2023-05-17T12:00:55.703Z,13.00
2023-05-17T12:03:25.553Z,12.90
2023-05-17T12:06:14.725Z,12.90
2023-05-17T12:08:46.413Z,12.80
2023-05-17T12:11:17.576Z,12.70
2023-05-17T12:13:46.901Z,12.90
2023-05-17T12:16:17.929Z,13.00
2023-05-17T12:18:52.064Z,13.30
2023-05-17T12:21:21.668Z,13.30
2023-05-17T12:23:51.992Z,13.10
2023-05-17T12:26:23.448Z,13.20
2023-05-17T12:28:58.379Z,13.40
2023-05-17T12:31:33.459Z,13.60
2023-05-17T12:34:02.865Z,14.10
2023-05-17T12:36:33.899Z,14.30
2023-05-17T12:39:02.464Z,14.30
2023-05-17T12:41:30.791Z,14.20
2023-05-17T12:44:13.865Z,14.10
2023-05-17T12:46:42.720Z,14.00
2023-05-17T12:49:12.045Z,13.90
2023-05-17T12:51:46.400Z,13.90
2023-05-17T12:54:27.968Z,14.10
2023-05-17T12:56:55.558Z,14.60
2023-05-17T12:59:25.786Z,14.90
2023-05-17T13:02:03.364Z,15.40
2023-05-17T13:04:32.673Z,15.50
2023-05-17T13:07:04.662Z,15.00
2023-05-17T13:09:33.013Z,14.60
2023-05-17T13:12:02.495Z,14.40
2023-05-17T13:14:42.674Z,14.30
2023-05-17T13:17:13.466Z,14.30
2023-05-17T13:19:40.353Z,14.50
2023-05-17T13:22:07.412Z,14.80
2023-05-17T13:24:36.328Z,15.00
2023-05-17T13:27:04.075Z,15.20
2023-05-17T13:29:39.739Z,15.00
2023-05-17T13:32:08.999Z,14.60
2023-05-17T13:34:36.467Z,14.40
2023-05-17T13:37:04.118Z,14.40
2023-05-17T13:39:30.930Z,14.30
2023-05-17T13:41:59.273Z,14.20
2023-05-17T13:44:26.415Z,14.10
2023-05-17T13:46:53.414Z,14.00
2023-05-17T13:49:20.860Z,13.70
2023-05-17T13:51:48.021Z,13.40
2023-05-17T13:54:15.164Z,13.00
2023-05-17T13:56:41.953Z,13.00
2023-05-17T13:59:08.744Z,13.00
2023-05-17T14:01:35.813Z,12.90
2023-05-17T14:04:02.887Z,13.10
2023-05-17T14:06:29.935Z,13.50
2023-05-17T14:08:58.040Z,14.10
2023-05-17T14:11:24.980Z,14.40
2023-05-17T14:13:51.872Z,14.70
2023-05-17T14:16:18.894Z,15.10
2023-05-17T14:18:46.434Z,15.40
2023-05-17T14:21:13.557Z,15.60
2023-05-17T14:23:40.289Z,15.50
2023-05-17T14:26:07.652Z,15.80
2023-05-17T14:28:38.367Z,15.90
2023-05-17T14:31:09.410Z,16.00
2023-05-17T14:33:36.377Z,15.80
2023-05-17T14:36:06.754Z,15.70
2023-05-17T14:38:33.496Z,15.70
2023-05-17T14:41:03.426Z,15.70
2023-05-17T14:43:30.252Z,15.40
2023-05-17T14:45:57.344Z,15.20
2023-05-17T14:48:24.260Z,15.10
2023-05-17T14:50:53.302Z,15.30
2023-05-17T14:53:20.369Z,15.40
2023-05-17T14:55:47.700Z,15.40
2023-05-17T14:58:14.414Z,15.30
2023-05-17T15:00:45.071Z,14.90
2023-05-17T15:03:11.945Z,14.60
2023-05-17T15:05:38.980Z,14.10
2023-05-17T15:08:06.121Z,14.00
2023-05-17T15:10:33.204Z,13.80
2023-05-17T15:13:00.330Z,13.80
2023-05-17T15:15:28.203Z,13.60
2023-05-17T15:17:55.303Z,13.50
2023-05-17T15:20:22.756Z,13.40
2023-05-17T15:22:49.814Z,13.50
2023-05-17T15:25:16.630Z,13.70
2023-05-17T15:27:43.958Z,13.90
2023-05-17T15:30:13.315Z,14.00
2023-05-17T15:32:41.003Z,14.00
2023-05-17T15:35:08.253Z,13.90
2023-05-17T15:37:35.326Z,13.60
2023-05-17T15:40:09.817Z,13.60
2023-05-17T15:42:37.005Z,13.80
2023-05-17T15:45:04.047Z,14.10
2023-05-17T15:47:42.654Z,14.30
2023-05-17T15:50:11.261Z,14.40
2023-05-17T15:52:39.285Z,14.40
2023-05-17T15:55:06.865Z,14.30
2023-05-17T15:57:33.562Z,14.00
2023-05-17T16:00:00.386Z,13.80
2023-05-17T16:02:27.276Z,13.60
2023-05-17T16:04:54.373Z,13.30
2023-05-17T16:07:21.431Z,13.10
2023-05-17T16:09:48.226Z,13.00
2023-05-17T16:12:15.087Z,13.10
2023-05-17T16:14:41.843Z,13.10
2023-05-17T16:17:08.877Z,13.10
2023-05-17T16:19:35.657Z,13.10
2023-05-17T16:22:02.845Z,13.10
2023-05-17T16:24:29.650Z,13.20
2023-05-17T16:26:56.798Z,13.10
2023-05-17T16:29:23.546Z,13.10
2023-05-17T16:31:51.526Z,13.10
2023-05-17T16:34:18.684Z,13.10
2023-05-17T16:36:48.320Z,13.00
2023-05-17T16:39:15.352Z,13.10
2023-05-17T16:41:42.134Z,13.20
2023-05-17T16:44:09.199Z,13.40
2023-05-17T16:46:38.185Z,13.40
2023-05-17T16:49:05.111Z,13.10
2023-05-17T16:51:32.113Z,12.90
2023-05-17T16:53:58.855Z,12.50
2023-05-17T16:56:25.651Z,12.40
2023-05-17T16:58:52.693Z,12.40
2023-05-17T17:01:19.475Z,12.40
2023-05-17T17:03:46.333Z,12.40
2023-05-17T17:06:13.371Z,12.30
2023-05-17T17:08:40.268Z,12.30
2023-05-17T17:11:07.009Z,12.20
2023-05-17T17:13:34.121Z,12.10
2023-05-17T17:16:01.323Z,12.00
2023-05-17T17:18:29.130Z,12.00
2023-05-17T17:20:55.997Z,12.00
2023-05-17T17:23:22.795Z,12.00
2023-05-17T17:25:49.631Z,12.10
2023-05-17T17:28:16.504Z,12.00
2023-05-17T17:30:43.479Z,12.00
2023-05-17T17:33:10.370Z,12.00
2023-05-17T17:35:37.486Z,12.00
2023-05-17T17:38:04.420Z,11.90
2023-05-17T17:40:31.825Z,11.80
2023-05-17T17:42:59.143Z,11.60
2023-05-17T17:45:25.961Z,11.50
2023-05-17T17:47:53.039Z,11.50
2023-05-17T17:50:19.834Z,11.40
2023-05-17T17:52:46.936Z,11.30
2023-05-17T17:55:13.774Z,11.20
2023-05-17T17:57:41.940Z,11.10
2023-05-17T18:00:11.981Z,11.10
2023-05-17T18:03:40.733Z,11.00
2023-05-17T18:06:07.568Z,11.00
2023-05-17T18:08:34.467Z,10.70
2023-05-17T18:11:01.403Z,10.60
2023-05-17T18:13:28.153Z,10.60
2023-05-17T18:15:55.057Z,10.50
2023-05-17T18:18:21.877Z,10.40
2023-05-17T18:20:48.694Z,10.30
2023-05-17T18:23:15.734Z,10.20
2023-05-17T18:25:42.693Z,10.10
2023-05-17T18:28:09.439Z,10.00
2023-05-17T18:30:36.469Z,9.80
2023-05-17T18:33:03.391Z,9.70
2023-05-17T18:35:30.564Z,9.60
2023-05-17T18:37:57.515Z,9.50
2023-05-17T18:40:26.424Z,9.40
2023-05-17T18:42:53.671Z,9.30
2023-05-17T18:45:20.720Z,9.20
2023-05-17T18:47:47.580Z,9.10
2023-05-17T18:50:14.380Z,9.10
2023-05-17T18:52:41.242Z,9.00
2023-05-17T18:55:08.254Z,9.00
2023-05-17T18:57:35.220Z,8.90
2023-05-17T19:00:02.290Z,8.90
2023-05-17T19:02:29.097Z,8.80
2023-05-17T19:04:56.141Z,8.70
2023-05-17T19:07:23.128Z,8.60
2023-05-17T19:10:10.246Z,8.50
2023-05-17T19:12:37.006Z,8.40
2023-05-17T19:15:04.667Z,8.40
2023-05-17T19:17:31.854Z,8.30
2023-05-17T19:19:58.729Z,8.30
2023-05-17T19:22:25.726Z,8.20
2023-05-17T19:24:52.517Z,8.20
2023-05-17T19:27:19.898Z,8.20
2023-05-17T19:29:49.782Z,8.10
2023-05-17T19:32:16.882Z,8.00
2023-05-17T19:34:43.762Z,7.90
2023-05-17T19:37:10.573Z,7.80
2023-05-17T19:39:37.828Z,7.70
2023-05-17T19:42:04.854Z,7.60
2023-05-17T19:44:31.907Z,7.50
2023-05-17T19:46:58.651Z,7.40
2023-05-17T19:49:25.481Z,7.40
2023-05-17T19:51:54.123Z,7.30
2023-05-17T19:54:22.031Z,7.20
2023-05-17T19:56:48.868Z,7.10
2023-05-17T19:59:15.735Z,7.00
2023-05-17T20:01:42.603Z,7.00
2023-05-17T20:04:10.768Z,6.90
2023-05-17T20:06:37.741Z,6.80
2023-05-17T20:09:04.888Z,6.70
2023-05-17T20:11:31.940Z,6.70
2023-05-17T20:13:58.773Z,6.60
2023-05-17T20:16:28.327Z,6.60
2023-05-17T20:18:55.233Z,6.50
2023-05-17T20:21:23.633Z,6.40
2023-05-17T20:23:52.405Z,6.20
2023-05-17T20:26:25.953Z,6.20
2023-05-17T20:28:53.727Z,6.10
2023-05-17T20:31:20.800Z,6.10
2023-05-17T20:33:47.587Z,6.00
2023-05-17T20:36:14.990Z,5.90
2023-05-17T20:38:42.728Z,5.70
2023-05-17T20:41:11.042Z,5.70
2023-05-17T20:43:38.185Z,5.50
2023-05-17T20:46:07.269Z,5.40
2023-05-17T20:48:34.398Z,5.30
2023-05-17T20:51:01.586Z,5.30
2023-05-17T20:53:46.844Z,5.20
2023-05-17T20:56:19.534Z,5.20
2023-05-17T20:58:47.712Z,5.10
2023-05-17T21:01:14.811Z,5.00
2023-05-17T21:03:43.573Z,5.00
2023-05-17T21:06:11.062Z,4.90
2023-05-17T21:08:38.540Z,4.90
2023-05-17T21:11:05.611Z,4.80
2023-05-17T21:13:32.481Z,4.70
2023-05-17T21:15:59.342Z,4.70
2023-05-17T21:18:26.359Z,4.60
2023-05-17T21:20:55.401Z,4.60
2023-05-17T21:23:22.212Z,4.50
2023-05-17T21:25:49.223Z,4.50
2023-05-17T21:28:16.317Z,4.40
2023-05-17T21:30:43.379Z,4.40
2023-05-17T21:33:10.334Z,4.30
2023-05-17T21:35:37.162Z,4.30
2023-05-17T21:38:04.354Z,4.30
2023-05-17T21:40:31.707Z,4.20
2023-05-17T21:42:58.787Z,4.20
2023-05-17T21:45:25.812Z,4.10
2023-05-17T21:47:52.718Z,4.10
2023-05-17T21:50:20.031Z,4.00
2023-05-17T21:52:46.785Z,4.00
2023-05-17T21:55:13.615Z,4.00
2023-05-17T21:57:40.658Z,4.00
2023-05-17T22:00:12.593Z,4.00
2023-05-17T22:02:43.081Z,4.00
2023-05-17T22:05:09.989Z,4.00
2023-05-17T22:07:37.246Z,4.00
2023-05-17T22:10:07.971Z,4.00
2023-05-17T22:12:36.439Z,3.90
2023-05-17T22:15:03.406Z,3.80
2023-05-17T22:17:39.187Z,3.80
2023-05-17T22:20:17.171Z,3.80
2023-05-17T22:22:44.194Z,3.80
2023-05-17T22:25:11.028Z,3.80
2023-05-17T22:27:38.115Z,3.80
2023-05-17T22:30:06.302Z,3.70
2023-05-17T22:32:33.364Z,3.70
2023-05-17T22:35:00.165Z,3.70
2023-05-17T22:37:27.357Z,3.70
2023-05-17T22:39:54.094Z,3.80
2023-05-17T22:42:21.171Z,3.80
2023-05-17T22:44:47.947Z,3.80
2023-05-17T22:47:16.735Z,3.80
2023-05-17T22:49:43.637Z,3.80
2023-05-17T22:52:11.200Z,3.80
2023-05-17T22:54:38.955Z,3.90
2023-05-17T22:57:06.092Z,3.90
2023-05-17T22:59:33.206Z,3.90
2023-05-17T23:02:00.977Z,3.90
2023-05-17T23:04:30.402Z,3.90
2023-05-17T23:07:04.165Z,3.90
2023-05-17T23:09:31.312Z,3.80
2023-05-17T23:12:00.540Z,3.90
2023-05-17T23:14:27.816Z,3.90
2023-05-17T23:16:54.560Z,3.90
2023-05-17T23:19:23.493Z,3.90
2023-05-17T23:21:50.631Z,3.90
2023-05-17T23:24:17.689Z,3.80
2023-05-17T23:26:44.399Z,3.80
2023-05-17T23:29:12.858Z,3.80
2023-05-17T23:31:41.357Z,3.70
2023-05-17T23:34:08.426Z,3.60
2023-05-17T23:36:35.192Z,3.60
2023-05-17T23:39:01.992Z,3.60
2023-05-17T23:41:29.575Z,3.50
2023-05-17T23:43:57.208Z,3.60
2023-05-17T23:46:24.466Z,3.50
2023-05-17T23:48:51.314Z,3.50
2023-05-17T23:51:21.468Z,3.50
2023-05-17T23:53:49.251Z,3.50
2023-05-17T23:56:17.797Z,3.40
2023-05-17T23:58:45.686Z,3.40
